sensor_id;sensor_type;location;lat;lon;timestamp;P1;durP1;ratioP1;P2;durP2;ratioP2
21639;SDS011;10981;45.462;10.974;2022-11-03T00:02:09;55.05;;;33.47;;
21639;SDS011;10981;45.462;10.974;2022-11-03T00:04:37;54.42;;;33.92;;
21639;SDS011;10981;45.462;10.974;2022-11-03T00:07:05;59.03;;;32.53;;
21639;SDS011;10981;45.462;10.974;2022-11-03T00:09:34;50.15;;;33.10;;
21639;SDS011;10981;45.462;10.974;2022-11-03T00:12:02;52.75;;;32.92;;
21639;SDS011;10981;45.462;10.974;2022-11-03T00:14:30;61.50;;;34.85;;
21639;SDS011;10981;45.462;10.974;2022-11-03T00:16:59;55.95;;;34.42;;
21639;SDS011;10981;45.462;10.974;2022-11-03T00:19:30;52.30;;;31.20;;
21639;SDS011;10981;45.462;10.974;2022-11-03T00:21:58;51.45;;;31.27;;
21639;SDS011;10981;45.462;10.974;2022-11-03T00:24:26;47.03;;;28.17;;
21639;SDS011;10981;45.462;10.974;2022-11-03T00:26:54;46.97;;;27.05;;
21639;SDS011;10981;45.462;10.974;2022-11-03T00:29:22;42.22;;;27.00;;
21639;SDS011;10981;45.462;10.974;2022-11-03T00:31:51;47.78;;;26.75;;
21639;SDS011;10981;45.462;10.974;2022-11-03T00:34:19;43.85;;;25.73;;
21639;SDS011;10981;45.462;10.974;2022-11-03T00:36:47;46.30;;;27.77;;
21639;SDS011;10981;45.462;10.974;2022-11-03T00:39:15;48.42;;;28.10;;
21639;SDS011;10981;45.462;10.974;2022-11-03T00:41:43;43.17;;;26.77;;
21639;SDS011;10981;45.462;10.974;2022-11-03T00:44:11;47.25;;;27.73;;
21639;SDS011;10981;45.462;10.974;2022-11-03T00:46:40;52.38;;;30.00;;
21639;SDS011;10981;45.462;10.974;2022-11-03T00:49:08;55.53;;;31.88;;
21639;SDS011;10981;45.462;10.974;2022-11-03T00:51:36;56.05;;;32.88;;
21639;SDS011;10981;45.462;10.974;2022-11-03T00:54:04;56.03;;;32.70;;
21639;SDS011;10981;45.462;10.974;2022-11-03T00:56:34;54.72;;;33.33;;
21639;SDS011;10981;45.462;10.974;2022-11-03T00:59:07;57.63;;;33.65;;
21639;SDS011;10981;45.462;10.974;2022-11-03T01:01:40;60.22;;;32.78;;
21639;SDS011;10981;45.462;10.974;2022-11-03T01:04:16;53.65;;;34.42;;
21639;SDS011;10981;45.462;10.974;2022-11-03T01:07:03;51.00;;;31.58;;
21639;SDS011;10981;45.462;10.974;2022-11-03T01:12:08;58.70;;;35.17;;
21639;SDS011;10981;45.462;10.974;2022-11-03T01:17:12;57.42;;;33.83;;
21639;SDS011;10981;45.462;10.974;2022-11-03T01:19:45;54.25;;;31.90;;
21639;SDS011;10981;45.462;10.974;2022-11-03T01:22:16;52.28;;;32.63;;
21639;SDS011;10981;45.462;10.974;2022-11-03T01:24:45;61.63;;;33.75;;
21639;SDS011;10981;45.462;10.974;2022-11-03T01:27:14;50.15;;;31.85;;
21639;SDS011;10981;45.462;10.974;2022-11-03T01:29:44;56.25;;;31.38;;
21639;SDS011;10981;45.462;10.974;2022-11-03T01:32:13;56.75;;;33.90;;
21639;SDS011;10981;45.462;10.974;2022-11-03T01:34:41;53.38;;;33.00;;
21639;SDS011;10981;45.462;10.974;2022-11-03T01:37:09;51.28;;;33.40;;
21639;SDS011;10981;45.462;10.974;2022-11-03T01:39:37;57.55;;;34.03;;
21639;SDS011;10981;45.462;10.974;2022-11-03T01:42:06;56.08;;;34.15;;
21639;SDS011;10981;45.462;10.974;2022-11-03T01:44:38;54.53;;;31.38;;
21639;SDS011;10981;45.462;10.974;2022-11-03T01:47:25;61.63;;;32.03;;
21639;SDS011;10981;45.462;10.974;2022-11-03T01:49:58;49.95;;;32.53;;
21639;SDS011;10981;45.462;10.974;2022-11-03T01:52:35;53.45;;;32.45;;
21639;SDS011;10981;45.462;10.974;2022-11-03T01:55:10;53.17;;;34.08;;
21639;SDS011;10981;45.462;10.974;2022-11-03T01:57:49;53.40;;;31.25;;
21639;SDS011;10981;45.462;10.974;2022-11-03T02:00:28;54.47;;;31.83;;
21639;SDS011;10981;45.462;10.974;2022-11-03T02:02:56;54.22;;;30.25;;
21639;SDS011;10981;45.462;10.974;2022-11-03T02:05:26;44.60;;;28.88;;
21639;SDS011;10981;45.462;10.974;2022-11-03T02:08:07;45.95;;;28.08;;
21639;SDS011;10981;45.462;10.974;2022-11-03T02:10:48;48.00;;;27.20;;
21639;SDS011;10981;45.462;10.974;2022-11-03T02:13:19;45.55;;;26.63;;
21639;SDS011;10981;45.462;10.974;2022-11-03T02:15:49;46.78;;;25.90;;
21639;SDS011;10981;45.462;10.974;2022-11-03T02:18:27;48.33;;;27.17;;
21639;SDS011;10981;45.462;10.974;2022-11-03T02:21:02;53.70;;;27.02;;
21639;SDS011;10981;45.462;10.974;2022-11-03T02:23:54;45.92;;;26.63;;
21639;SDS011;10981;45.462;10.974;2022-11-03T02:26:44;48.03;;;27.65;;
21639;SDS011;10981;45.462;10.974;2022-11-03T02:29:16;49.85;;;29.90;;
21639;SDS011;10981;45.462;10.974;2022-11-03T02:32:28;51.65;;;30.40;;
21639;SDS011;10981;45.462;10.974;2022-11-03T02:34:48;51.30;;;30.98;;
21639;SDS011;10981;45.462;10.974;2022-11-03T02:37:41;57.28;;;32.17;;
21639;SDS011;10981;45.462;10.974;2022-11-03T02:40:14;46.67;;;30.33;;
21639;SDS011;10981;45.462;10.974;2022-11-03T02:42:54;49.72;;;29.30;;
21639;SDS011;10981;45.462;10.974;2022-11-03T02:45:24;49.92;;;29.55;;
21639;SDS011;10981;45.462;10.974;2022-11-03T02:47:54;59.28;;;32.53;;
21639;SDS011;10981;45.462;10.974;2022-11-03T02:50:26;54.10;;;30.65;;
21639;SDS011;10981;45.462;10.974;2022-11-03T02:52:56;45.25;;;27.95;;
21639;SDS011;10981;45.462;10.974;2022-11-03T02:55:36;52.08;;;30.13;;
21639;SDS011;10981;45.462;10.974;2022-11-03T03:01:01;52.60;;;28.85;;
21639;SDS011;10981;45.462;10.974;2022-11-03T03:03:42;50.17;;;29.50;;
21639;SDS011;10981;45.462;10.974;2022-11-03T03:06:15;51.53;;;28.88;;
21639;SDS011;10981;45.462;10.974;2022-11-03T03:08:54;48.30;;;29.90;;
21639;SDS011;10981;45.462;10.974;2022-11-03T03:11:26;55.72;;;29.63;;
21639;SDS011;10981;45.462;10.974;2022-11-03T03:14:12;54.10;;;29.88;;
21639;SDS011;10981;45.462;10.974;2022-11-03T03:22:27;50.80;;;30.23;;
21639;SDS011;10981;45.462;10.974;2022-11-03T03:25:20;52.65;;;29.48;;
21639;SDS011;10981;45.462;10.974;2022-11-03T03:28:02;55.55;;;29.40;;
21639;SDS011;10981;45.462;10.974;2022-11-03T03:30:42;56.08;;;29.48;;
21639;SDS011;10981;45.462;10.974;2022-11-03T03:35:44;51.88;;;27.27;;
21639;SDS011;10981;45.462;10.974;2022-11-03T03:38:18;57.40;;;29.15;;
21639;SDS011;10981;45.462;10.974;2022-11-03T03:40:52;60.03;;;30.55;;
21639;SDS011;10981;45.462;10.974;2022-11-03T03:43:23;57.55;;;31.08;;
21639;SDS011;10981;45.462;10.974;2022-11-03T03:45:55;65.00;;;32.20;;
21639;SDS011;10981;45.462;10.974;2022-11-03T03:48:28;59.00;;;30.13;;
21639;SDS011;10981;45.462;10.974;2022-11-03T03:50:56;64.43;;;33.17;;
21639;SDS011;10981;45.462;10.974;2022-11-03T03:53:26;58.83;;;32.08;;
21639;SDS011;10981;45.462;10.974;2022-11-03T03:55:56;64.15;;;31.23;;
21639;SDS011;10981;45.462;10.974;2022-11-03T03:58:25;57.08;;;28.85;;
21639;SDS011;10981;45.462;10.974;2022-11-03T04:00:54;48.03;;;30.00;;
21639;SDS011;10981;45.462;10.974;2022-11-03T04:03:23;53.60;;;29.08;;
21639;SDS011;10981;45.462;10.974;2022-11-03T04:05:52;48.67;;;27.13;;
21639;SDS011;10981;45.462;10.974;2022-11-03T04:08:23;45.78;;;27.17;;
21639;SDS011;10981;45.462;10.974;2022-11-03T04:10:52;49.25;;;27.85;;
21639;SDS011;10981;45.462;10.974;2022-11-03T04:13:40;53.10;;;28.60;;
21639;SDS011;10981;45.462;10.974;2022-11-03T04:16:27;47.30;;;27.80;;
21639;SDS011;10981;45.462;10.974;2022-11-03T04:19:15;53.95;;;28.55;;
21639;SDS011;10981;45.462;10.974;2022-11-03T04:22:03;56.08;;;28.80;;
21639;SDS011;10981;45.462;10.974;2022-11-03T04:24:45;57.53;;;29.85;;
21639;SDS011;10981;45.462;10.974;2022-11-03T04:29:48;55.53;;;30.35;;
21639;SDS011;10981;45.462;10.974;2022-11-03T04:32:17;59.53;;;31.15;;
21639;SDS011;10981;45.462;10.974;2022-11-03T04:34:45;53.53;;;29.77;;
21639;SDS011;10981;45.462;10.974;2022-11-03T04:37:14;61.35;;;30.13;;
21639;SDS011;10981;45.462;10.974;2022-11-03T04:39:43;64.85;;;31.75;;
21639;SDS011;10981;45.462;10.974;2022-11-03T04:42:17;69.05;;;31.05;;
21639;SDS011;10981;45.462;10.974;2022-11-03T04:44:47;62.00;;;31.85;;
21639;SDS011;10981;45.462;10.974;2022-11-03T04:47:16;70.78;;;34.80;;
21639;SDS011;10981;45.462;10.974;2022-11-03T04:49:45;67.32;;;35.53;;
21639;SDS011;10981;45.462;10.974;2022-11-03T04:52:15;63.85;;;31.80;;
21639;SDS011;10981;45.462;10.974;2022-11-03T04:54:46;72.00;;;33.95;;
21639;SDS011;10981;45.462;10.974;2022-11-03T04:57:17;65.70;;;34.00;;
21639;SDS011;10981;45.462;10.974;2022-11-03T04:59:46;68.57;;;32.40;;
21639;SDS011;10981;45.462;10.974;2022-11-03T05:02:18;76.55;;;36.63;;
21639;SDS011;10981;45.462;10.974;2022-11-03T05:04:47;76.95;;;34.67;;
21639;SDS011;10981;45.462;10.974;2022-11-03T05:07:36;77.05;;;36.67;;
21639;SDS011;10981;45.462;10.974;2022-11-03T05:10:03;75.03;;;35.55;;
21639;SDS011;10981;45.462;10.974;2022-11-03T05:12:33;70.13;;;34.33;;
21639;SDS011;10981;45.462;10.974;2022-11-03T05:15:02;72.78;;;36.20;;
21639;SDS011;10981;45.462;10.974;2022-11-03T05:17:51;72.03;;;35.53;;
21639;SDS011;10981;45.462;10.974;2022-11-03T05:20:30;74.55;;;36.63;;
21639;SDS011;10981;45.462;10.974;2022-11-03T05:23:03;71.47;;;36.10;;
21639;SDS011;10981;45.462;10.974;2022-11-03T05:25:34;70.68;;;34.78;;
21639;SDS011;10981;45.462;10.974;2022-11-03T05:28:22;68.78;;;34.50;;
21639;SDS011;10981;45.462;10.974;2022-11-03T05:30:53;68.45;;;33.80;;
21639;SDS011;10981;45.462;10.974;2022-11-03T05:33:29;60.58;;;33.63;;
21639;SDS011;10981;45.462;10.974;2022-11-03T05:36:06;61.30;;;31.10;;
21639;SDS011;10981;45.462;10.974;2022-11-03T05:38:40;60.85;;;31.92;;
21639;SDS011;10981;45.462;10.974;2022-11-03T05:41:21;71.55;;;35.10;;
21639;SDS011;10981;45.462;10.974;2022-11-03T05:44:02;70.88;;;35.83;;
21639;SDS011;10981;45.462;10.974;2022-11-03T05:46:41;71.95;;;34.75;;
21639;SDS011;10981;45.462;10.974;2022-11-03T05:49:10;77.97;;;36.47;;
21639;SDS011;10981;45.462;10.974;2022-11-03T05:51:38;81.35;;;39.17;;
21639;SDS011;10981;45.462;10.974;2022-11-03T05:54:19;70.25;;;35.15;;
21639;SDS011;10981;45.462;10.974;2022-11-03T05:56:52;69.63;;;35.87;;
21639;SDS011;10981;45.462;10.974;2022-11-03T05:59:23;69.25;;;35.38;;
21639;SDS011;10981;45.462;10.974;2022-11-03T06:01:54;76.45;;;37.45;;
21639;SDS011;10981;45.462;10.974;2022-11-03T06:07:19;68.13;;;35.35;;
21639;SDS011;10981;45.462;10.974;2022-11-03T06:09:52;62.90;;;31.45;;
21639;SDS011;10981;45.462;10.974;2022-11-03T06:12:21;48.33;;;27.35;;
21639;SDS011;10981;45.462;10.974;2022-11-03T06:14:52;48.80;;;26.80;;
21639;SDS011;10981;45.462;10.974;2022-11-03T06:17:21;49.40;;;27.17;;
21639;SDS011;10981;45.462;10.974;2022-11-03T06:19:53;49.05;;;26.95;;
21639;SDS011;10981;45.462;10.974;2022-11-03T06:22:28;48.47;;;26.67;;
21639;SDS011;10981;45.462;10.974;2022-11-03T06:25:22;50.95;;;27.42;;
21639;SDS011;10981;45.462;10.974;2022-11-03T06:28:02;51.08;;;28.85;;
21639;SDS011;10981;45.462;10.974;2022-11-03T06:30:32;48.58;;;27.67;;
21639;SDS011;10981;45.462;10.974;2022-11-03T06:33:03;56.10;;;27.90;;
21639;SDS011;10981;45.462;10.974;2022-11-03T06:35:42;52.95;;;28.10;;
21639;SDS011;10981;45.462;10.974;2022-11-03T06:38:14;52.65;;;29.60;;
21639;SDS011;10981;45.462;10.974;2022-11-03T06:40:50;52.60;;;28.15;;
21639;SDS011;10981;45.462;10.974;2022-11-03T06:45:56;59.97;;;29.85;;
21639;SDS011;10981;45.462;10.974;2022-11-03T06:48:26;57.28;;;28.75;;
21639;SDS011;10981;45.462;10.974;2022-11-03T06:50:55;58.50;;;30.38;;
21639;SDS011;10981;45.462;10.974;2022-11-03T06:53:26;55.67;;;30.67;;
21639;SDS011;10981;45.462;10.974;2022-11-03T06:55:57;62.60;;;33.25;;
21639;SDS011;10981;45.462;10.974;2022-11-03T06:58:27;66.45;;;31.02;;
21639;SDS011;10981;45.462;10.974;2022-11-03T07:01:01;63.20;;;33.53;;
21639;SDS011;10981;45.462;10.974;2022-11-03T07:03:38;60.97;;;31.65;;
21639;SDS011;10981;45.462;10.974;2022-11-03T07:08:53;58.03;;;30.55;;
21639;SDS011;10981;45.462;10.974;2022-11-03T07:11:26;67.45;;;33.22;;
21639;SDS011;10981;45.462;10.974;2022-11-03T07:14:02;53.92;;;30.35;;
21639;SDS011;10981;45.462;10.974;2022-11-03T07:16:47;60.38;;;32.90;;
21639;SDS011;10981;45.462;10.974;2022-11-03T07:19:26;56.47;;;30.17;;
21639;SDS011;10981;45.462;10.974;2022-11-03T07:24:37;54.60;;;29.60;;
21639;SDS011;10981;45.462;10.974;2022-11-03T07:27:22;51.42;;;27.30;;
21639;SDS011;10981;45.462;10.974;2022-11-03T07:32:42;55.47;;;27.58;;
21639;SDS011;10981;45.462;10.974;2022-11-03T07:37:45;47.92;;;24.48;;
21639;SDS011;10981;45.462;10.974;2022-11-03T07:40:23;39.25;;;23.08;;
21639;SDS011;10981;45.462;10.974;2022-11-03T07:42:57;45.50;;;23.73;;
21639;SDS011;10981;45.462;10.974;2022-11-03T07:51:05;41.20;;;22.23;;
21639;SDS011;10981;45.462;10.974;2022-11-03T07:53:47;39.58;;;22.92;;
21639;SDS011;10981;45.462;10.974;2022-11-03T07:56:19;39.80;;;22.85;;
21639;SDS011;10981;45.462;10.974;2022-11-03T07:58:53;36.47;;;20.33;;
21639;SDS011;10981;45.462;10.974;2022-11-03T08:01:35;38.42;;;21.38;;
21639;SDS011;10981;45.462;10.974;2022-11-03T08:04:11;42.08;;;21.50;;
21639;SDS011;10981;45.462;10.974;2022-11-03T08:06:44;44.42;;;20.90;;
21639;SDS011;10981;45.462;10.974;2022-11-03T08:09:13;40.25;;;21.13;;
21639;SDS011;10981;45.462;10.974;2022-11-03T08:11:41;38.35;;;21.58;;
21639;SDS011;10981;45.462;10.974;2022-11-03T08:14:10;39.25;;;21.88;;
21639;SDS011;10981;45.462;10.974;2022-11-03T08:16:39;42.20;;;22.80;;
21639;SDS011;10981;45.462;10.974;2022-11-03T08:19:07;36.75;;;20.38;;
21639;SDS011;10981;45.462;10.974;2022-11-03T08:21:36;38.13;;;21.15;;
21639;SDS011;10981;45.462;10.974;2022-11-03T08:24:05;39.33;;;20.52;;
21639;SDS011;10981;45.462;10.974;2022-11-03T08:26:33;38.55;;;21.50;;
21639;SDS011;10981;45.462;10.974;2022-11-03T08:29:01;40.83;;;23.48;;
21639;SDS011;10981;45.462;10.974;2022-11-03T08:31:30;43.95;;;23.73;;
21639;SDS011;10981;45.462;10.974;2022-11-03T08:33:58;50.92;;;24.33;;
21639;SDS011;10981;45.462;10.974;2022-11-03T08:36:26;38.90;;;24.00;;
21639;SDS011;10981;45.462;10.974;2022-11-03T08:38:54;43.92;;;23.95;;
21639;SDS011;10981;45.462;10.974;2022-11-03T08:41:22;45.88;;;21.25;;
21639;SDS011;10981;45.462;10.974;2022-11-03T08:43:51;45.78;;;22.65;;
21639;SDS011;10981;45.462;10.974;2022-11-03T08:46:19;38.45;;;20.02;;
21639;SDS011;10981;45.462;10.974;2022-11-03T08:48:47;37.28;;;22.15;;
21639;SDS011;10981;45.462;10.974;2022-11-03T08:51:15;37.60;;;20.35;;
21639;SDS011;10981;45.462;10.974;2022-11-03T08:53:44;36.50;;;20.33;;
21639;SDS011;10981;45.462;10.974;2022-11-03T08:56:16;38.72;;;19.73;;
21639;SDS011;10981;45.462;10.974;2022-11-03T08:58:48;31.67;;;18.65;;
21639;SDS011;10981;45.462;10.974;2022-11-03T09:01:16;36.65;;;19.50;;
21639;SDS011;10981;45.462;10.974;2022-11-03T09:03:44;35.13;;;19.23;;
21639;SDS011;10981;45.462;10.974;2022-11-03T09:06:13;35.83;;;19.45;;
21639;SDS011;10981;45.462;10.974;2022-11-03T09:08:41;38.13;;;19.42;;
21639;SDS011;10981;45.462;10.974;2022-11-03T09:11:29;41.53;;;19.38;;
21639;SDS011;10981;45.462;10.974;2022-11-03T09:13:57;44.13;;;19.13;;
21639;SDS011;10981;45.462;10.974;2022-11-03T09:16:25;38.75;;;20.05;;
21639;SDS011;10981;45.462;10.974;2022-11-03T09:18:53;36.25;;;19.27;;
21639;SDS011;10981;45.462;10.974;2022-11-03T09:21:22;35.72;;;20.73;;
21639;SDS011;10981;45.462;10.974;2022-11-03T09:23:50;34.33;;;18.83;;
21639;SDS011;10981;45.462;10.974;2022-11-03T09:26:18;39.38;;;19.60;;
21639;SDS011;10981;45.462;10.974;2022-11-03T09:28:49;37.25;;;20.05;;
21639;SDS011;10981;45.462;10.974;2022-11-03T09:31:18;37.35;;;18.85;;
21639;SDS011;10981;45.462;10.974;2022-11-03T09:33:46;37.97;;;22.65;;
21639;SDS011;10981;45.462;10.974;2022-11-03T09:36:14;42.83;;;22.85;;
21639;SDS011;10981;45.462;10.974;2022-11-03T09:38:43;40.95;;;21.23;;
21639;SDS011;10981;45.462;10.974;2022-11-03T09:41:11;51.25;;;22.20;;
21639;SDS011;10981;45.462;10.974;2022-11-03T09:43:55;40.30;;;22.10;;
21639;SDS011;10981;45.462;10.974;2022-11-03T09:46:24;45.47;;;22.83;;
21639;SDS011;10981;45.462;10.974;2022-11-03T09:48:54;47.78;;;23.80;;
21639;SDS011;10981;45.462;10.974;2022-11-03T09:51:23;42.33;;;22.35;;
21639;SDS011;10981;45.462;10.974;2022-11-03T09:53:57;41.75;;;21.98;;
21639;SDS011;10981;45.462;10.974;2022-11-03T09:56:32;39.40;;;20.95;;
21639;SDS011;10981;45.462;10.974;2022-11-03T09:59:21;43.42;;;22.35;;
21639;SDS011;10981;45.462;10.974;2022-11-03T10:01:51;40.55;;;20.77;;
21639;SDS011;10981;45.462;10.974;2022-11-03T10:04:21;41.22;;;21.88;;
21639;SDS011;10981;45.462;10.974;2022-11-03T10:06:55;42.45;;;22.30;;
21639;SDS011;10981;45.462;10.974;2022-11-03T10:09:24;42.85;;;22.23;;
21639;SDS011;10981;45.462;10.974;2022-11-03T10:11:54;44.10;;;23.38;;
21639;SDS011;10981;45.462;10.974;2022-11-03T10:14:23;42.55;;;22.80;;
21639;SDS011;10981;45.462;10.974;2022-11-03T10:16:52;45.53;;;23.15;;
21639;SDS011;10981;45.462;10.974;2022-11-03T10:19:23;43.08;;;24.13;;
21639;SDS011;10981;45.462;10.974;2022-11-03T10:21:51;42.13;;;25.73;;
21639;SDS011;10981;45.462;10.974;2022-11-03T10:24:19;52.53;;;28.02;;
21639;SDS011;10981;45.462;10.974;2022-11-03T10:26:49;46.75;;;25.45;;
21639;SDS011;10981;45.462;10.974;2022-11-03T10:29:22;46.40;;;25.70;;
21639;SDS011;10981;45.462;10.974;2022-11-03T10:31:53;45.47;;;25.48;;
21639;SDS011;10981;45.462;10.974;2022-11-03T10:39:51;44.17;;;25.42;;
21639;SDS011;10981;45.462;10.974;2022-11-03T10:42:28;48.15;;;25.65;;
21639;SDS011;10981;45.462;10.974;2022-11-03T10:45:13;47.70;;;27.30;;
21639;SDS011;10981;45.462;10.974;2022-11-03T10:47:43;50.08;;;26.27;;
21639;SDS011;10981;45.462;10.974;2022-11-03T10:50:27;51.45;;;29.65;;
21639;SDS011;10981;45.462;10.974;2022-11-03T10:52:56;41.97;;;26.85;;
21639;SDS011;10981;45.462;10.974;2022-11-03T10:55:25;50.55;;;26.60;;
21639;SDS011;10981;45.462;10.974;2022-11-03T10:57:53;50.45;;;28.58;;
21639;SDS011;10981;45.462;10.974;2022-11-03T11:00:24;53.22;;;29.10;;
21639;SDS011;10981;45.462;10.974;2022-11-03T11:02:53;62.25;;;31.85;;
21639;SDS011;10981;45.462;10.974;2022-11-03T11:05:25;59.58;;;33.08;;
21639;SDS011;10981;45.462;10.974;2022-11-03T11:07:53;63.38;;;30.52;;
21639;SDS011;10981;45.462;10.974;2022-11-03T11:10:25;61.58;;;33.70;;
21639;SDS011;10981;45.462;10.974;2022-11-03T11:15:41;62.35;;;31.60;;
21639;SDS011;10981;45.462;10.974;2022-11-03T11:18:59;59.28;;;31.80;;
21639;SDS011;10981;45.462;10.974;2022-11-03T11:24:07;63.78;;;32.30;;
21639;SDS011;10981;45.462;10.974;2022-11-03T11:26:36;57.15;;;29.80;;
21639;SDS011;10981;45.462;10.974;2022-11-03T11:31:40;63.45;;;33.25;;
21639;SDS011;10981;45.462;10.974;2022-11-03T11:44:53;68.72;;;35.25;;
21639;SDS011;10981;45.462;10.974;2022-11-03T11:58:13;73.68;;;36.65;;
21639;SDS011;10981;45.462;10.974;2022-11-03T12:00:51;67.40;;;37.13;;
21639;SDS011;10981;45.462;10.974;2022-11-03T12:03:37;67.28;;;35.90;;
21639;SDS011;10981;45.462;10.974;2022-11-03T12:06:11;64.95;;;33.63;;
21639;SDS011;10981;45.462;10.974;2022-11-03T12:08:39;67.28;;;34.28;;
21639;SDS011;10981;45.462;10.974;2022-11-03T12:11:09;67.53;;;36.08;;
21639;SDS011;10981;45.462;10.974;2022-11-03T12:13:48;66.50;;;35.42;;
21639;SDS011;10981;45.462;10.974;2022-11-03T12:16:29;66.88;;;35.47;;
21639;SDS011;10981;45.462;10.974;2022-11-03T12:21:58;68.05;;;34.75;;
21639;SDS011;10981;45.462;10.974;2022-11-03T12:26:58;61.70;;;33.70;;
21639;SDS011;10981;45.462;10.974;2022-11-03T12:29:27;66.20;;;37.22;;
21639;SDS011;10981;45.462;10.974;2022-11-03T12:31:56;64.93;;;34.03;;
21639;SDS011;10981;45.462;10.974;2022-11-03T12:34:24;62.60;;;33.38;;
21639;SDS011;10981;45.462;10.974;2022-11-03T12:36:52;68.55;;;41.05;;
21639;SDS011;10981;45.462;10.974;2022-11-03T12:39:22;84.18;;;43.47;;
21639;SDS011;10981;45.462;10.974;2022-11-03T12:41:50;78.40;;;42.55;;
21639;SDS011;10981;45.462;10.974;2022-11-03T12:44:18;82.68;;;46.50;;
21639;SDS011;10981;45.462;10.974;2022-11-03T12:46:47;76.93;;;44.60;;
21639;SDS011;10981;45.462;10.974;2022-11-03T12:49:17;75.43;;;41.80;;
21639;SDS011;10981;45.462;10.974;2022-11-03T12:51:45;72.88;;;42.22;;
21639;SDS011;10981;45.462;10.974;2022-11-03T12:54:13;82.88;;;47.03;;
21639;SDS011;10981;45.462;10.974;2022-11-03T12:56:42;79.15;;;43.90;;
21639;SDS011;10981;45.462;10.974;2022-11-03T12:59:10;81.03;;;44.15;;
21639;SDS011;10981;45.462;10.974;2022-11-03T13:01:38;78.30;;;43.40;;
21639;SDS011;10981;45.462;10.974;2022-11-03T13:04:06;74.45;;;40.88;;
21639;SDS011;10981;45.462;10.974;2022-11-03T13:06:35;85.80;;;42.28;;
21639;SDS011;10981;45.462;10.974;2022-11-03T13:09:05;76.80;;;40.42;;
21639;SDS011;10981;45.462;10.974;2022-11-03T13:11:33;75.05;;;39.47;;
21639;SDS011;10981;45.462;10.974;2022-11-03T13:14:20;80.95;;;41.30;;
21639;SDS011;10981;45.462;10.974;2022-11-03T13:16:48;77.05;;;42.53;;
21639;SDS011;10981;45.462;10.974;2022-11-03T13:19:17;73.15;;;42.47;;
21639;SDS011;10981;45.462;10.974;2022-11-03T13:21:45;68.85;;;41.05;;
21639;SDS011;10981;45.462;10.974;2022-11-03T13:24:14;79.63;;;42.47;;
21639;SDS011;10981;45.462;10.974;2022-11-03T13:26:42;74.88;;;40.30;;
21639;SDS011;10981;45.462;10.974;2022-11-03T13:29:10;70.88;;;40.58;;
21639;SDS011;10981;45.462;10.974;2022-11-03T13:31:39;77.53;;;41.08;;
21639;SDS011;10981;45.462;10.974;2022-11-03T13:34:07;82.93;;;41.53;;
21639;SDS011;10981;45.462;10.974;2022-11-03T13:36:37;76.45;;;41.13;;
21639;SDS011;10981;45.462;10.974;2022-11-03T13:39:06;73.55;;;41.38;;
21639;SDS011;10981;45.462;10.974;2022-11-03T13:41:34;80.28;;;42.38;;
21639;SDS011;10981;45.462;10.974;2022-11-03T13:44:02;75.25;;;43.30;;
21639;SDS011;10981;45.462;10.974;2022-11-03T13:46:30;75.97;;;41.25;;
21639;SDS011;10981;45.462;10.974;2022-11-03T13:48:58;73.97;;;40.88;;
21639;SDS011;10981;45.462;10.974;2022-11-03T13:51:46;79.53;;;41.85;;
21639;SDS011;10981;45.462;10.974;2022-11-03T13:54:15;78.18;;;42.17;;
21639;SDS011;10981;45.462;10.974;2022-11-03T13:57:03;77.72;;;42.65;;
21639;SDS011;10981;45.462;10.974;2022-11-03T13:59:51;82.93;;;42.83;;
21639;SDS011;10981;45.462;10.974;2022-11-03T14:02:20;81.10;;;43.83;;
21639;SDS011;10981;45.462;10.974;2022-11-03T14:05:08;82.78;;;44.00;;
21639;SDS011;10981;45.462;10.974;2022-11-03T14:07:37;80.65;;;44.00;;
21639;SDS011;10981;45.462;10.974;2022-11-03T14:10:06;70.72;;;39.80;;
21639;SDS011;10981;45.462;10.974;2022-11-03T14:12:34;75.35;;;44.60;;
21639;SDS011;10981;45.462;10.974;2022-11-03T14:15:04;80.70;;;41.83;;
21639;SDS011;10981;45.462;10.974;2022-11-03T14:17:35;82.18;;;42.20;;
21639;SDS011;10981;45.462;10.974;2022-11-03T14:20:05;78.57;;;44.10;;
21639;SDS011;10981;45.462;10.974;2022-11-03T14:22:35;81.30;;;43.40;;
21639;SDS011;10981;45.462;10.974;2022-11-03T14:25:04;75.95;;;40.78;;
21639;SDS011;10981;45.462;10.974;2022-11-03T14:27:33;79.22;;;43.55;;
21639;SDS011;10981;45.462;10.974;2022-11-03T14:30:02;77.88;;;42.15;;
21639;SDS011;10981;45.462;10.974;2022-11-03T14:32:31;77.07;;;41.20;;
21639;SDS011;10981;45.462;10.974;2022-11-03T14:34:59;83.20;;;41.95;;
21639;SDS011;10981;45.462;10.974;2022-11-03T14:37:27;82.38;;;43.05;;
21639;SDS011;10981;45.462;10.974;2022-11-03T14:39:56;74.85;;;41.15;;
21639;SDS011;10981;45.462;10.974;2022-11-03T14:42:24;80.50;;;43.28;;
21639;SDS011;10981;45.462;10.974;2022-11-03T14:44:52;82.35;;;43.47;;
21639;SDS011;10981;45.462;10.974;2022-11-03T14:47:20;80.03;;;46.22;;
21639;SDS011;10981;45.462;10.974;2022-11-03T14:49:50;83.57;;;43.15;;
21639;SDS011;10981;45.462;10.974;2022-11-03T14:52:18;77.60;;;42.90;;
21639;SDS011;10981;45.462;10.974;2022-11-03T14:54:46;74.85;;;41.85;;
21639;SDS011;10981;45.462;10.974;2022-11-03T14:57:15;73.07;;;42.05;;
21639;SDS011;10981;45.462;10.974;2022-11-03T14:59:43;79.82;;;41.67;;
21639;SDS011;10981;45.462;10.974;2022-11-03T15:02:18;74.43;;;42.25;;
21639;SDS011;10981;45.462;10.974;2022-11-03T15:04:46;77.03;;;42.80;;
21639;SDS011;10981;45.462;10.974;2022-11-03T15:07:14;84.57;;;43.28;;
21639;SDS011;10981;45.462;10.974;2022-11-03T15:09:42;80.15;;;42.67;;
21639;SDS011;10981;45.462;10.974;2022-11-03T15:12:11;81.13;;;43.20;;
21639;SDS011;10981;45.462;10.974;2022-11-03T15:14:39;77.90;;;41.97;;
21639;SDS011;10981;45.462;10.974;2022-11-03T15:17:07;74.22;;;39.85;;
21639;SDS011;10981;45.462;10.974;2022-11-03T15:19:35;80.25;;;40.53;;
21639;SDS011;10981;45.462;10.974;2022-11-03T15:22:03;82.50;;;42.15;;
21639;SDS011;10981;45.462;10.974;2022-11-03T15:24:31;80.88;;;41.92;;
21639;SDS011;10981;45.462;10.974;2022-11-03T15:27:19;78.60;;;42.50;;
21639;SDS011;10981;45.462;10.974;2022-11-03T15:29:47;93.68;;;48.30;;
21639;SDS011;10981;45.462;10.974;2022-11-03T15:32:15;84.82;;;45.00;;
21639;SDS011;10981;45.462;10.974;2022-11-03T15:34:44;90.10;;;44.25;;
21639;SDS011;10981;45.462;10.974;2022-11-03T15:37:12;84.28;;;45.97;;
21639;SDS011;10981;45.462;10.974;2022-11-03T15:39:41;82.82;;;44.75;;
21639;SDS011;10981;45.462;10.974;2022-11-03T15:42:09;86.65;;;44.75;;
21639;SDS011;10981;45.462;10.974;2022-11-03T15:44:37;80.90;;;43.30;;
21639;SDS011;10981;45.462;10.974;2022-11-03T15:47:06;82.90;;;44.85;;
21639;SDS011;10981;45.462;10.974;2022-11-03T15:49:34;86.15;;;44.80;;
21639;SDS011;10981;45.462;10.974;2022-11-03T15:52:02;80.72;;;42.63;;
21639;SDS011;10981;45.462;10.974;2022-11-03T15:54:31;83.30;;;44.58;;
21639;SDS011;10981;45.462;10.974;2022-11-03T15:57:07;83.07;;;45.17;;
21639;SDS011;10981;45.462;10.974;2022-11-03T15:59:35;88.82;;;45.10;;